Time;durP1;ratioP1;P1;durP2;ratioP2;P2;SDS_P1;SDS_P2;PMS_P1;PMS_P2;Temp;Humidity;BMP_temperature;BMP_pressure;BME280_temperature;BME280_humidity;BME280_pressure;Samples;Min_cycle;Max_cycle;Signal;HPM_P1;HPM_P2
2022/12/12 11:52:22;;;;;;;33.73;21.80;;;0.30;99.90;;;;;;5552443;22;20586;-67
2022/12/12 11:54:49;;;;;;;27.43;19.03;;;0.30;99.90;;;;;;5077481;28;20636;-67
2022/12/12 11:57:29;;;;;;;30.73;18.93;;;0.30;99.90;;;;;;5078332;28;20236;-66
2022/12/12 12:00:08;;;;;;;26.67;17.47;;;0.40;99.90;;;;;;5067556;28;20250;-68
2022/12/12 12:02:58;;;;;;;28.03;18.27;;;0.50;99.90;;;;;;5062404;28;20443;-67
2022/12/12 12:05:31;;;;;;;28.23;18.03;;;0.60;99.90;;;;;;5067906;28;20193;-68
2022/12/12 12:08:13;;;;;;;28.80;18.77;;;0.70;99.90;;;;;;5068492;28;20197;-68
2022/12/12 12:10:52;;;;;;;26.80;17.30;;;0.70;99.90;;;;;;5068350;28;20212;-70
2022/12/12 12:13:35;;;;;;;27.33;17.77;;;0.80;99.90;;;;;;5068473;28;20204;-68
2022/12/12 12:16:11;;;;;;;28.93;17.70;;;0.90;99.90;;;;;;5068237;28;20196;-69
2022/12/12 12:18:54;;;;;;;27.00;17.47;;;0.90;99.90;;;;;;5068422;28;20193;-68
2022/12/12 12:21:28;;;;;;;24.00;16.17;;;0.90;99.90;;;;;;5065829;28;20271;-69
2022/12/12 12:24:15;;;;;;;26.30;17.13;;;1.00;99.90;;;;;;5064587;28;20204;-68
2022/12/12 12:26:50;;;;;;;25.20;15.83;;;1.00;99.90;;;;;;5067194;28;20185;-69
2022/12/12 12:29:41;;;;;;;21.67;14.90;;;1.00;99.90;;;;;;5068159;28;20192;-69
2022/12/12 12:32:18;;;;;;;22.43;15.07;;;1.00;99.90;;;;;;5068339;28;20213;-68
2022/12/12 12:34:55;;;;;;;24.77;15.67;;;0.90;99.90;;;;;;5069898;28;20649;-68
2022/12/12 12:37:36;;;;;;;24.50;15.87;;;0.90;99.90;;;;;;5052304;28;20189;-69
2022/12/12 12:40:23;;;;;;;24.37;15.57;;;0.90;99.90;;;;;;5067593;28;20196;-69
2022/12/12 12:43:07;;;;;;;22.87;14.83;;;0.90;99.90;;;;;;5068366;28;20201;-68
2022/12/12 12:45:44;;;;;;;22.67;15.47;;;0.80;99.90;;;;;;5068147;28;20280;-69
2022/12/12 12:48:18;;;;;;;23.73;15.40;;;0.80;99.90;;;;;;5067835;28;20277;-69
2022/12/12 12:50:50;;;;;;;23.07;15.27;;;0.80;99.90;;;;;;5067523;28;20589;-68
2022/12/12 12:53:26;;;;;;;21.97;14.47;;;0.80;99.90;;;;;;5067413;28;20279;-69
2022/12/12 12:55:59;;;;;;;22.50;15.50;;;0.80;99.90;;;;;;5067651;28;20651;-69
2022/12/12 12:58:28;;;;;;;22.03;14.87;;;0.80;99.90;;;;;;5067337;28;20200;-69
2022/12/12 13:01:02;;;;;;;25.43;16.23;;;0.80;99.90;;;;;;5067535;28;20223;-68
2022/12/12 13:03:35;;;;;;;30.00;20.50;;;0.90;99.90;;;;;;5054345;28;20205;-69
2022/12/12 13:06:08;;;;;;;21.27;15.07;;;0.90;99.90;;;;;;5054354;28;20204;-70
2022/12/12 13:08:47;;;;;;;25.40;16.33;;;0.80;99.90;;;;;;5054562;28;20190;-69
2022/12/12 13:11:20;;;;;;;24.47;15.40;;;0.90;99.90;;;;;;5054323;28;20206;-70
2022/12/12 13:13:48;;;;;;;26.00;15.87;;;0.90;99.90;;;;;;5054353;28;20609;-69
2022/12/12 13:16:20;;;;;;;24.93;16.67;;;0.90;99.90;;;;;;5053706;28;20197;-71
2022/12/12 13:18:55;;;;;;;24.40;15.53;;;0.90;99.90;;;;;;5054042;28;20193;-68
2022/12/12 13:21:30;;;;;;;25.03;15.63;;;1.00;99.90;;;;;;5054271;28;20201;-70
2022/12/12 13:24:03;;;;;;;27.77;16.63;;;1.00;99.90;;;;;;5054385;28;20203;-68
2022/12/12 13:26:40;;;;;;;24.33;15.90;;;1.00;99.90;;;;;;5053685;28;20204;-69
2022/12/12 13:29:32;;;;;;;51.27;30.93;;;1.00;99.90;;;;;;5053769;28;20598;-68
2022/12/12 13:32:21;;;;;;;29.73;18.80;;;1.00;99.90;;;;;;5054098;28;20742;-67
2022/12/12 13:34:52;;;;;;;30.73;20.67;;;1.00;99.90;;;;;;5053440;28;20201;-69
2022/12/12 13:37:21;;;;;;;21.67;14.90;;;1.10;99.90;;;;;;5053383;28;20193;-70
2022/12/12 13:39:58;;;;;;;23.93;15.43;;;1.00;99.90;;;;;;5053904;28;20209;-70
2022/12/12 13:42:26;;;;;;;24.17;15.33;;;1.00;99.90;;;;;;5054151;28;20291;-69
2022/12/12 13:44:53;;;;;;;24.73;16.73;;;1.00;99.90;;;;;;5053195;28;20567;-69
2022/12/12 13:47:58;;;;;;;25.27;16.43;;;1.10;99.90;;;;;;5065077;28;20193;-68
2022/12/12 13:50:25;;;;;;;22.97;15.13;;;1.10;99.90;;;;;;5033626;28;20216;-69
2022/12/12 13:53:19;;;;;;;32.93;21.27;;;1.10;99.90;;;;;;5052872;28;20229;-70
2022/12/12 13:55:46;;;;;;;25.27;16.50;;;1.10;99.90;;;;;;5017356;28;20209;-70
2022/12/12 13:58:34;;;;;;;31.07;18.40;;;1.10;99.90;;;;;;5053563;28;20572;-67
2022/12/12 14:01:30;;;;;;;29.60;18.33;;;1.10;99.90;;;;;;5053197;28;20696;-69
2022/12/12 14:03:58;;;;;;;24.83;16.20;;;1.10;99.90;;;;;;5052954;28;20282;-69
2022/12/12 14:06:29;;;;;;;23.57;15.67;;;1.20;99.90;;;;;;5053128;28;20235;-68
2022/12/12 14:08:56;;;;;;;23.53;14.80;;;1.20;99.90;;;;;;5053335;28;20216;-69
2022/12/12 14:11:31;;;;;;;25.07;16.47;;;1.20;99.90;;;;;;5052692;28;20584;-68
2022/12/12 14:14:17;;;;;;;24.70;17.10;;;1.20;99.90;;;;;;5052201;28;20193;-68
2022/12/12 14:16:52;;;;;;;26.97;17.57;;;1.20;99.90;;;;;;5052567;28;20197;-69
2022/12/12 14:19:28;;;;;;;25.80;16.53;;;1.20;99.90;;;;;;5053335;28;20193;-70
2022/12/12 18:46:52;;;;;;;38.90;24.77;;;0.20;99.90;;;;;;5136558;27;20567;-76
2022/12/12 18:49:19;;;;;;;33.83;23.23;;;0.20;99.90;;;;;;5609341;22;20236;-73
2022/12/12 18:51:46;;;;;;;32.40;21.63;;;0.30;99.90;;;;;;5080841;28;20273;-76
2022/12/12 18:54:14;;;;;;;35.43;23.57;;;0.40;99.90;;;;;;5089723;28;20567;-77
2022/12/12 18:56:41;;;;;;;33.47;22.83;;;0.50;99.90;;;;;;5074574;28;20300;-75
2022/12/12 18:59:08;;;;;;;33.53;22.00;;;0.60;99.90;;;;;;5078224;28;20196;-75
2022/12/12 19:01:36;;;;;;;36.83;23.50;;;0.70;99.90;;;;;;5092872;28;20212;-75
2022/12/12 19:04:05;;;;;;;36.83;23.97;;;0.80;99.90;;;;;;5094112;28;20589;-74
2022/12/12 19:06:34;;;;;;;38.17;23.73;;;0.90;99.90;;;;;;5093053;28;20253;-77
2022/12/12 19:09:03;;;;;;;34.53;23.00;;;0.90;99.90;;;;;;5091641;28;20386;-73
2022/12/12 19:11:31;;;;;;;36.50;23.57;;;0.90;99.90;;;;;;5091098;28;20260;-74
2022/12/12 19:13:59;;;;;;;35.57;23.50;;;0.90;99.90;;;;;;5091983;28;20538;-75
2022/12/12 19:16:26;;;;;;;37.83;24.40;;;1.00;99.90;;;;;;5085744;28;20193;-74
2022/12/12 19:18:53;;;;;;;36.53;23.70;;;1.00;99.90;;;;;;5070048;28;20208;-77
2022/12/12 19:21:26;;;;;;;36.23;24.53;;;1.10;99.90;;;;;;5071025;28;20203;-78
2022/12/12 19:23:53;;;;;;;40.07;25.53;;;1.10;99.90;;;;;;5089629;28;20231;-77
2022/12/12 19:26:24;;;;;;;38.03;25.27;;;1.10;99.90;;;;;;5089964;28;20224;-77
2022/12/12 19:28:51;;;;;;;36.87;24.73;;;1.10;99.90;;;;;;5071252;28;20282;-75
2022/12/12 19:31:18;;;;;;;37.77;24.33;;;1.10;99.90;;;;;;5071261;28;20231;-75
2022/12/12 19:33:45;;;;;;;37.83;24.47;;;1.10;99.90;;;;;;5068955;28;20209;-74
2022/12/12 19:36:14;;;;;;;37.03;23.83;;;1.10;99.90;;;;;;5087793;28;20204;-74
2022/12/12 19:38:42;;;;;;;34.87;22.93;;;1.10;99.90;;;;;;5075412;28;20215;-74
2022/12/12 19:41:12;;;;;;;37.03;23.63;;;1.20;99.90;;;;;;5080797;28;20196;-75
2022/12/12 19:43:38;;;;;;;35.57;24.40;;;1.20;99.90;;;;;;5091348;28;20676;-74
2022/12/12 19:46:07;;;;;;;41.60;25.97;;;1.20;99.90;;;;;;5077879;28;20217;-76
2022/12/12 19:48:34;;;;;;;40.80;26.30;;;1.20;99.90;;;;;;5088800;28;20200;-76
2022/12/12 19:51:06;;;;;;;37.47;25.00;;;1.20;99.90;;;;;;5073448;28;20234;-76
2022/12/12 19:53:35;;;;;;;38.20;25.23;;;1.20;99.90;;;;;;5071296;28;20555;-76
2022/12/12 19:56:04;;;;;;;37.33;24.37;;;1.20;99.90;;;;;;5068798;28;20207;-75
2022/12/12 19:58:31;;;;;;;34.27;23.07;;;1.30;99.90;;;;;;5060579;28;20247;-75
2022/12/12 20:01:05;;;;;;;33.53;22.70;;;1.30;99.90;;;;;;5063040;28;20211;-77
2022/12/12 20:03:31;;;;;;;33.80;22.40;;;1.30;99.90;;;;;;5064760;28;20747;-76
2022/12/12 20:06:02;;;;;;;31.87;21.63;;;1.30;99.90;;;;;;5066023;28;20225;-75
2022/12/12 20:08:29;;;;;;;34.50;23.00;;;1.30;99.90;;;;;;5063890;28;20202;-75
2022/12/12 20:11:02;;;;;;;35.10;23.17;;;1.30;99.90;;;;;;5061900;28;20205;-71
2022/12/12 20:13:30;;;;;;;40.20;25.40;;;1.30;99.90;;;;;;5073110;28;20189;-73
2022/12/12 20:15:57;;;;;;;40.13;25.80;;;1.30;99.90;;;;;;5067440;28;20508;-72
2022/12/12 20:18:24;;;;;;;39.57;26.77;;;1.30;99.90;;;;;;5055605;28;20201;-71
2022/12/12 20:20:55;;;;;;;41.10;26.67;;;1.40;99.90;;;;;;5069648;28;20201;-72
2022/12/12 20:23:22;;;;;;;47.77;28.77;;;1.40;99.90;;;;;;5073063;28;20209;-72
2022/12/12 20:25:49;;;;;;;52.13;30.70;;;1.40;99.90;;;;;;5074080;28;20233;-75
2022/12/12 20:28:16;;;;;;;79.17;41.53;;;1.40;99.90;;;;;;5063938;28;20202;-76
2022/12/12 20:30:44;;;;;;;49.60;30.07;;;1.40;99.90;;;;;;5054796;28;20201;-77
2022/12/12 20:33:11;;;;;;;43.83;27.77;;;1.40;99.90;;;;;;5053863;28;20208;-76
2022/12/12 20:35:38;;;;;;;41.90;26.63;;;1.40;99.90;;;;;;5067596;28;20199;-77
2022/12/12 20:38:05;;;;;;;42.90;27.17;;;1.40;99.90;;;;;;5069422;28;20227;-77
2022/12/12 20:40:33;;;;;;;42.70;27.03;;;1.40;99.90;;;;;;5062593;28;20215;-75
2022/12/12 20:43:00;;;;;;;43.60;26.50;;;1.40;99.90;;;;;;5075932;28;20292;-75
2022/12/12 20:45:27;;;;;;;40.93;26.93;;;1.40;99.90;;;;;;5072116;28;20220;-76
2022/12/12 20:47:55;;;;;;;45.43;28.93;;;1.40;99.90;;;;;;5073618;28;20204;-75
2022/12/12 20:50:22;;;;;;;45.10;28.77;;;1.40;99.90;;;;;;5072812;28;20615;-76
2022/12/12 20:52:48;;;;;;;45.57;28.73;;;1.40;99.90;;;;;;5070700;28;20291;-74
2022/12/12 20:55:15;;;;;;;47.90;29.63;;;1.40;99.90;;;;;;5067933;28;20212;-69
2022/12/12 20:57:42;;;;;;;46.00;29.07;;;1.40;99.90;;;;;;5057168;28;20220;-70
2022/12/12 21:00:10;;;;;;;48.67;28.97;;;1.40;99.90;;;;;;5057020;28;20209;-68
2022/12/12 21:02:39;;;;;;;46.90;29.03;;;1.40;99.90;;;;;;5059721;28;20214;-71
2022/12/12 21:05:08;;;;;;;48.03;29.37;;;1.40;99.90;;;;;;5068578;28;20208;-72
2022/12/12 21:07:35;;;;;;;48.33;29.53;;;1.40;99.90;;;;;;5065274;28;20209;-70
2022/12/12 21:10:01;;;;;;;50.80;31.33;;;1.40;99.90;;;;;;5057762;28;20213;-69
2022/12/12 21:12:28;;;;;;;48.40;30.27;;;1.40;99.90;;;;;;5053083;28;20690;-68
2022/12/12 21:14:55;;;;;;;47.30;30.03;;;1.40;99.90;;;;;;5052552;28;20217;-68
2022/12/12 21:17:22;;;;;;;43.53;28.50;;;1.30;99.90;;;;;;5054238;28;20209;-69
2022/12/12 21:19:48;;;;;;;57.97;35.00;;;1.30;99.90;;;;;;5052922;28;20220;-69
2022/12/12 21:22:17;;;;;;;70.53;43.17;;;1.30;99.90;;;;;;5060112;28;20197;-70
2022/12/12 21:24:43;;;;;;;48.63;30.03;;;1.30;99.90;;;;;;5073289;28;20209;-68
2022/12/12 21:27:10;;;;;;;44.83;27.80;;;1.30;99.90;;;;;;5053577;28;20221;-69
2022/12/12 21:29:37;;;;;;;45.13;28.03;;;1.30;99.90;;;;;;5053623;28;20586;-69
2022/12/12 21:32:04;;;;;;;44.13;27.83;;;1.30;99.90;;;;;;5053106;28;20248;-70
2022/12/12 21:34:31;;;;;;;41.17;26.80;;;1.30;99.90;;;;;;5054177;28;20215;-68
2022/12/12 21:36:58;;;;;;;40.83;26.70;;;1.30;99.90;;;;;;5054053;28;20201;-68
2022/12/12 21:39:28;;;;;;;41.70;27.07;;;1.30;99.90;;;;;;5060856;28;20291;-67
2022/12/12 21:41:56;;;;;;;47.27;28.67;;;1.30;99.90;;;;;;5056473;28;20228;-68
2022/12/12 21:44:23;;;;;;;43.60;28.53;;;1.30;99.90;;;;;;5067750;28;20215;-67
2022/12/12 21:46:49;;;;;;;42.00;26.97;;;1.30;99.90;;;;;;5052381;28;20226;-68
2022/12/12 21:49:24;;;;;;;43.87;27.83;;;1.30;99.90;;;;;;5052980;28;20734;-68
2022/12/12 21:51:52;;;;;;;43.93;27.73;;;1.30;99.90;;;;;;5056790;28;20626;-69
2022/12/12 21:54:20;;;;;;;43.40;28.20;;;1.30;99.90;;;;;;5073069;28;20208;-69
2022/12/12 21:56:48;;;;;;;44.20;28.10;;;1.30;99.90;;;;;;5072802;28;20211;-70
2022/12/12 21:59:15;;;;;;;43.37;28.50;;;1.30;99.90;;;;;;5063455;28;20207;-69
2022/12/12 22:01:43;;;;;;;44.40;28.83;;;1.20;99.90;;;;;;5054484;28;20217;-68
2022/12/12 22:04:11;;;;;;;46.83;29.80;;;1.30;99.90;;;;;;5060026;28;20658;-70
2022/12/12 22:06:39;;;;;;;46.40;28.77;;;1.30;99.90;;;;;;5058932;28;20776;-70
2022/12/12 22:09:07;;;;;;;47.20;29.03;;;1.20;99.90;;;;;;5063677;28;20204;-67
2022/12/12 22:11:36;;;;;;;47.30;29.53;;;1.20;99.90;;;;;;5072429;28;20742;-68
2022/12/12 22:14:05;;;;;;;46.90;29.27;;;1.20;99.90;;;;;;5054821;28;20568;-70
2022/12/12 22:16:32;;;;;;;48.80;29.33;;;1.30;99.90;;;;;;5052070;28;20297;-68
2022/12/12 22:19:00;;;;;;;47.67;29.70;;;1.20;99.90;;;;;;5070689;28;20207;-68
2022/12/12 22:21:27;;;;;;;46.07;29.40;;;1.20;99.90;;;;;;5065945;28;20591;-68
2022/12/12 22:23:55;;;;;;;46.67;29.70;;;1.20;99.90;;;;;;5053689;28;20201;-67
2022/12/12 22:26:24;;;;;;;45.07;29.90;;;1.20;99.90;;;;;;5069973;28;20529;-67
2022/12/12 22:28:52;;;;;;;45.07;29.13;;;1.20;99.90;;;;;;5070428;28;20207;-67
2022/12/12 22:31:21;;;;;;;47.90;29.90;;;1.10;99.90;;;;;;5067922;28;20240;-65
2022/12/12 22:33:49;;;;;;;43.47;28.10;;;1.10;99.90;;;;;;5050778;28;20281;-66
2022/12/12 22:36:19;;;;;;;45.57;30.00;;;1.10;99.90;;;;;;5053814;28;20192;-64
2022/12/12 22:38:45;;;;;;;46.53;29.10;;;1.10;99.90;;;;;;5053756;28;20201;-65
2022/12/12 22:41:12;;;;;;;44.33;28.97;;;1.10;99.90;;;;;;5051423;28;20212;-64
2022/12/12 22:43:39;;;;;;;44.00;28.77;;;1.10;99.90;;;;;;5070352;28;20205;-65
2022/12/12 22:46:07;;;;;;;46.20;28.90;;;1.00;99.90;;;;;;5070472;28;20232;-66
2022/12/12 22:48:35;;;;;;;46.83;30.53;;;1.00;99.90;;;;;;5070641;28;20300;-66
2022/12/12 22:51:12;;;;;;;46.50;29.27;;;1.00;99.90;;;;;;5059247;28;20233;-66
2022/12/12 22:53:39;;;;;;;48.13;30.07;;;0.90;99.90;;;;;;5059586;28;20196;-66
2022/12/12 22:56:06;;;;;;;46.57;28.67;;;0.90;99.90;;;;;;5071916;28;20201;-66
2022/12/12 22:58:32;;;;;;;46.70;28.77;;;0.90;99.90;;;;;;5060067;28;20209;-65
2022/12/12 23:01:06;;;;;;;45.53;28.43;;;0.90;99.90;;;;;;5051541;28;20205;-65
2022/12/12 23:03:33;;;;;;;44.23;27.70;;;0.90;99.90;;;;;;5050941;28;20189;-66
2022/12/12 23:06:04;;;;;;;44.90;27.93;;;0.90;99.90;;;;;;5068091;28;20221;-65
2022/12/12 23:08:30;;;;;;;43.97;27.37;;;0.80;99.90;;;;;;5062840;28;20193;-64
2022/12/12 23:10:57;;;;;;;41.07;26.17;;;0.80;99.90;;;;;;5060313;28;20208;-64
2022/12/12 23:13:24;;;;;;;40.37;26.43;;;0.80;99.90;;;;;;5051261;28;20209;-65
2022/12/12 23:15:51;;;;;;;41.53;26.33;;;0.80;99.90;;;;;;5057789;28;20205;-65
2022/12/12 23:18:18;;;;;;;43.83;27.23;;;0.80;99.90;;;;;;5071369;28;20207;-66
2022/12/12 23:20:45;;;;;;;42.77;26.33;;;0.80;99.90;;;;;;5071119;28;20295;-64
2022/12/12 23:23:13;;;;;;;42.90;27.00;;;0.70;99.90;;;;;;5071298;28;20627;-65
2022/12/12 23:25:40;;;;;;;40.77;25.07;;;0.70;99.90;;;;;;5071233;28;20204;-64
2022/12/12 23:28:07;;;;;;;38.47;24.37;;;0.80;99.90;;;;;;5070371;28;20212;-65
2022/12/12 23:30:37;;;;;;;44.17;26.00;;;0.80;99.90;;;;;;5070779;28;20205;-64
2022/12/12 23:33:04;;;;;;;42.20;25.33;;;0.80;99.90;;;;;;5066136;28;20564;-65
2022/12/12 23:35:31;;;;;;;45.47;27.93;;;0.80;99.90;;;;;;5054816;28;20205;-66
2022/12/12 23:37:57;;;;;;;40.87;25.17;;;0.80;99.90;;;;;;5065040;28;20224;-65
2022/12/12 23:40:26;;;;;;;44.50;27.00;;;0.80;99.90;;;;;;5074838;28;20299;-65
2022/12/12 23:42:52;;;;;;;43.63;26.63;;;0.80;99.90;;;;;;5074671;28;20211;-65
2022/12/12 23:45:19;;;;;;;46.00;28.13;;;0.80;99.90;;;;;;5074960;28;20211;-63
2022/12/12 23:47:46;;;;;;;43.40;28.37;;;0.80;99.90;;;;;;5056075;28;20217;-65
2022/12/12 23:50:13;;;;;;;44.57;28.37;;;0.90;99.90;;;;;;5063462;28;20236;-65
2022/12/12 23:52:39;;;;;;;45.90;28.93;;;0.90;99.90;;;;;;5073468;28;20205;-66
2022/12/12 23:55:07;;;;;;;46.40;28.90;;;0.90;99.90;;;;;;5073914;28;20589;-64
2022/12/12 23:57:35;;;;;;;43.97;28.07;;;0.80;99.90;;;;;;5074068;28;20242;-64
